createdAt,value
2023-02-26T00:00:00.714Z,0.5
2023-02-26T00:01:00.873Z,0.5
2023-02-26T00:02:00.570Z,0.5
2023-02-26T00:03:00.584Z,0.6
2023-02-26T00:04:01.257Z,0.6
2023-02-26T00:05:00.526Z,0.6
2023-02-26T00:06:00.517Z,0.6
2023-02-26T00:07:00.522Z,0.6
2023-02-26T00:08:00.546Z,0.6
2023-02-26T00:09:00.964Z,0.6
2023-02-26T00:10:00.551Z,0.6
2023-02-26T00:11:00.827Z,0.6
2023-02-26T00:12:00.654Z,0.6
2023-02-26T00:13:00.646Z,0.7
2023-02-26T00:14:00.591Z,0.7
2023-02-26T00:15:00.723Z,0.7
2023-02-26T00:16:00.655Z,0.7
2023-02-26T00:17:03.833Z,0.8
2023-02-26T00:18:05.071Z,0.8
2023-02-26T00:19:02.095Z,0.7
2023-02-26T00:20:00.783Z,0.7
2023-02-26T00:21:00.656Z,0.8
2023-02-26T00:22:00.711Z,0.8
2023-02-26T00:23:00.647Z,0.8
2023-02-26T00:24:00.875Z,0.8
2023-02-26T00:25:00.542Z,0.8
2023-02-26T00:26:00.541Z,0.8
2023-02-26T00:27:00.534Z,0.8
2023-02-26T00:28:00.670Z,0.8
2023-02-26T00:29:00.710Z,0.9
2023-02-26T00:30:01.014Z,0.9
2023-02-26T00:31:00.674Z,0.9
2023-02-26T00:32:00.735Z,0.9
2023-02-26T00:33:00.726Z,1.0
2023-02-26T00:34:00.675Z,1.0
2023-02-26T00:35:00.698Z,1.0
2023-02-26T00:36:10.467Z,1.0
2023-02-26T00:37:09.521Z,1.1
2023-02-26T00:38:02.381Z,1.1
2023-02-26T00:39:07.632Z,1.0
2023-02-26T00:40:10.454Z,1.0
2023-02-26T00:41:00.552Z,1.0
2023-02-26T00:42:00.728Z,1.0
2023-02-26T00:43:01.588Z,1.0
2023-02-26T00:44:00.960Z,1.0
2023-02-26T00:45:00.864Z,1.0
2023-02-26T00:46:10.515Z,1.0
2023-02-26T00:47:08.959Z,1.0
2023-02-26T00:48:10.470Z,1.0
2023-02-26T00:49:07.841Z,0.9
2023-02-26T00:50:08.884Z,0.9
2023-02-26T00:51:07.305Z,0.8
2023-02-26T00:52:03.931Z,0.8
2023-02-26T00:53:07.961Z,0.8
2023-02-26T00:54:04.103Z,0.8
2023-02-26T00:55:00.539Z,0.8
2023-02-26T00:56:00.595Z,0.8
2023-02-26T00:57:00.533Z,0.8
2023-02-26T00:58:00.569Z,0.8
2023-02-26T00:59:00.545Z,0.8
2023-02-26T01:00:00.580Z,0.8
2023-02-26T01:01:00.519Z,0.8
2023-02-26T01:02:00.587Z,0.8
2023-02-26T01:03:00.675Z,0.7
2023-02-26T01:04:00.774Z,0.7
2023-02-26T01:05:00.625Z,0.7
2023-02-26T01:06:00.656Z,0.7
2023-02-26T01:07:00.601Z,0.7
2023-02-26T01:08:01.536Z,0.7
2023-02-26T01:09:01.524Z,0.7
2023-02-26T01:10:00.638Z,0.7
2023-02-26T01:11:00.628Z,0.7
2023-02-26T01:12:02.883Z,0.7
2023-02-26T01:13:00.633Z,0.6
2023-02-26T01:14:00.858Z,0.6
2023-02-26T01:15:00.709Z,0.6
2023-02-26T01:16:04.023Z,0.6
2023-02-26T01:17:05.717Z,0.6
2023-02-26T01:18:10.807Z,0.6
2023-02-26T01:19:10.470Z,0.6
2023-02-26T01:20:03.289Z,0.6
2023-02-26T01:21:02.838Z,0.5
2023-02-26T01:22:08.761Z,0.5
2023-02-26T01:23:02.744Z,0.5
2023-02-26T01:24:03.579Z,0.5
2023-02-26T01:25:03.764Z,0.5
2023-02-26T01:26:05.565Z,0.5
2023-02-26T01:27:00.565Z,0.4
2023-02-26T01:28:00.587Z,0.4
2023-02-26T01:29:00.648Z,0.4
2023-02-26T01:30:00.805Z,0.4
2023-02-26T01:31:03.276Z,0.4
2023-02-26T01:32:10.673Z,0.4
2023-02-26T01:33:07.272Z,0.5
2023-02-26T01:34:05.417Z,0.5
2023-02-26T01:35:10.449Z,0.4
2023-02-26T01:36:06.538Z,0.4
2023-02-26T01:37:10.484Z,0.4
2023-02-26T01:38:03.218Z,0.4
2023-02-26T01:39:05.998Z,0.3
2023-02-26T01:40:00.498Z,0.3
2023-02-26T01:41:08.714Z,0.3
2023-02-26T01:42:10.472Z,0.3
2023-02-26T01:43:04.472Z,0.3
2023-02-26T01:44:03.843Z,0.3
2023-02-26T01:45:10.486Z,0.3
2023-02-26T01:46:05.103Z,0.3
2023-02-26T01:47:10.473Z,0.3
2023-02-26T01:48:04.689Z,0.3
2023-02-26T01:49:01.439Z,0.1
2023-02-26T01:50:10.443Z,0.1
2023-02-26T01:51:00.600Z,0.2
2023-02-26T01:52:02.345Z,0.2
2023-02-26T01:53:03.774Z,0.2
2023-02-26T01:54:00.538Z,0.2
2023-02-26T01:55:00.657Z,0.1
2023-02-26T01:56:02.939Z,0.1
2023-02-26T01:57:01.510Z,0.1
2023-02-26T01:58:01.239Z,0.1
2023-02-26T01:59:01.648Z,0.1
2023-02-26T02:00:00.641Z,0.1
2023-02-26T02:01:00.878Z,0.2
2023-02-26T02:02:02.795Z,0.2
2023-02-26T02:03:00.876Z,0.1
2023-02-26T02:04:01.554Z,0.1
2023-02-26T02:05:10.453Z,0.1
2023-02-26T02:06:03.767Z,0.1
2023-02-26T02:07:01.117Z,0.1
2023-02-26T02:08:00.594Z,0.1
2023-02-26T02:09:01.926Z,0.1
2023-02-26T02:10:00.571Z,0.1
2023-02-26T02:11:02.210Z,0.0
2023-02-26T02:12:10.472Z,0.0
2023-02-26T02:13:00.523Z,-0.0
2023-02-26T02:14:10.464Z,-0.0
2023-02-26T02:15:00.576Z,0.1
2023-02-26T02:16:10.553Z,0.1
2023-02-26T02:17:09.362Z,0.1
2023-02-26T02:18:01.520Z,0.1
2023-02-26T02:19:00.512Z,0.1
2023-02-26T02:20:10.484Z,0.1
2023-02-26T02:21:01.536Z,-0.1
2023-02-26T02:22:10.476Z,-0.1
2023-02-26T02:23:09.477Z,-0.0
2023-02-26T02:25:10.482Z,-0.0
2023-02-26T02:26:10.449Z,-0.0
2023-02-26T02:27:00.532Z,-0.0
2023-02-26T02:28:10.442Z,-0.0
2023-02-26T02:29:03.776Z,0.0
2023-02-26T02:30:06.049Z,0.0
2023-02-26T02:31:03.891Z,0.0
2023-02-26T02:32:05.679Z,0.0
2023-02-26T02:33:03.485Z,-0.1
2023-02-26T02:34:09.214Z,-0.1
2023-02-26T02:35:10.436Z,-0.1
2023-02-26T02:36:04.859Z,-0.1
2023-02-26T02:37:03.970Z,-0.0
2023-02-26T02:38:10.648Z,-0.0
2023-02-26T02:39:08.417Z,-0.0
2023-02-26T02:40:03.335Z,-0.0
2023-02-26T02:41:10.229Z,-0.1
2023-02-26T02:42:00.542Z,-0.1
2023-02-26T02:43:01.522Z,-0.1
2023-02-26T02:44:02.381Z,-0.1
2023-02-26T02:45:04.305Z,-0.1
2023-02-26T02:46:04.005Z,-0.1
2023-02-26T02:47:02.062Z,-0.1
2023-02-26T02:48:02.880Z,-0.1
2023-02-26T02:49:03.362Z,-0.1
2023-02-26T02:50:01.574Z,-0.1
2023-02-26T02:51:02.409Z,-0.2
2023-02-26T02:52:09.358Z,-0.2
2023-02-26T02:53:03.688Z,-0.2
2023-02-26T02:54:07.404Z,-0.2
2023-02-26T02:55:04.353Z,-0.2
2023-02-26T02:56:07.990Z,-0.2
2023-02-26T02:57:05.802Z,-0.2
2023-02-26T02:58:05.916Z,-0.2
2023-02-26T02:59:05.076Z,-0.2
2023-02-26T03:00:04.314Z,-0.2
2023-02-26T03:01:02.192Z,-0.2
2023-02-26T03:02:06.519Z,-0.2
2023-02-26T03:03:10.447Z,-0.2
2023-02-26T03:04:05.262Z,-0.2
2023-02-26T03:05:00.626Z,-0.2
2023-02-26T03:06:00.616Z,-0.2
2023-02-26T03:07:00.530Z,-0.2
2023-02-26T03:08:03.978Z,-0.2
2023-02-26T03:09:01.383Z,-0.3
2023-02-26T03:10:00.535Z,-0.3
2023-02-26T03:11:00.555Z,-0.4
2023-02-26T03:12:01.037Z,-0.4
2023-02-26T03:13:00.644Z,-0.3
2023-02-26T03:14:01.166Z,-0.3
2023-02-26T03:15:00.939Z,-0.3
2023-02-26T03:16:08.616Z,-0.3
2023-02-26T03:17:07.599Z,-0.3
2023-02-26T03:18:05.893Z,-0.3
2023-02-26T03:19:10.469Z,-0.4
2023-02-26T03:20:01.506Z,-0.4
2023-02-26T03:21:00.501Z,-0.3
2023-02-26T03:22:03.754Z,-0.3
2023-02-26T03:23:00.490Z,-0.3
2023-02-26T03:24:10.434Z,-0.3
2023-02-26T03:25:10.470Z,-0.4
2023-02-26T03:26:08.380Z,-0.4
2023-02-26T03:27:06.643Z,-0.3
2023-02-26T03:28:00.510Z,-0.3
2023-02-26T03:29:00.534Z,-0.5
2023-02-26T03:30:04.963Z,-0.5
2023-02-26T03:31:06.426Z,-0.5
2023-02-26T03:32:04.312Z,-0.5
2023-02-26T03:33:05.162Z,-0.4
2023-02-26T03:34:07.835Z,-0.4
2023-02-26T03:35:03.933Z,-0.4
2023-02-26T03:36:07.385Z,-0.4
2023-02-26T03:37:03.739Z,-0.4
2023-02-26T03:38:02.916Z,-0.4
2023-02-26T03:39:01.517Z,-0.4
2023-02-26T03:40:02.836Z,-0.4
2023-02-26T03:41:03.580Z,-0.5
2023-02-26T03:42:00.489Z,-0.5
2023-02-26T03:43:04.453Z,-0.6
2023-02-26T03:44:04.743Z,-0.6
2023-02-26T03:45:00.492Z,-0.6
2023-02-26T03:46:03.918Z,-0.6
2023-02-26T03:47:04.848Z,-0.6
2023-02-26T03:48:01.844Z,-0.6
2023-02-26T03:49:04.341Z,-0.7
2023-02-26T03:50:00.512Z,-0.7
2023-02-26T03:51:02.854Z,-0.6
2023-02-26T03:52:01.733Z,-0.6
2023-02-26T03:53:01.660Z,-0.6
2023-02-26T03:54:04.882Z,-0.6
2023-02-26T03:55:05.116Z,-0.7
2023-02-26T03:56:01.548Z,-0.7
2023-02-26T03:57:00.547Z,-0.7
2023-02-26T03:58:00.845Z,-0.7
2023-02-26T03:59:00.631Z,-0.7
2023-02-26T04:00:00.548Z,-0.7
2023-02-26T04:01:05.045Z,-0.6
2023-02-26T04:02:03.778Z,-0.6
2023-02-26T04:03:04.042Z,-0.6
2023-02-26T04:04:10.476Z,-0.6
2023-02-26T04:05:10.441Z,-0.6
2023-02-26T04:06:01.246Z,-0.6
2023-02-26T04:07:01.238Z,-0.7
2023-02-26T04:08:01.235Z,-0.7
2023-02-26T04:09:00.924Z,-0.6
2023-02-26T04:10:00.513Z,-0.6
2023-02-26T04:11:05.963Z,-0.6
2023-02-26T04:12:00.524Z,-0.6
2023-02-26T04:13:01.579Z,-0.6
2023-02-26T04:14:00.564Z,-0.6
2023-02-26T04:15:00.530Z,-0.6
2023-02-26T04:16:00.524Z,-0.6
2023-02-26T04:17:00.756Z,-0.7
2023-02-26T04:18:00.517Z,-0.7
2023-02-26T04:19:00.505Z,-0.8
2023-02-26T04:20:00.533Z,-0.8
2023-02-26T04:21:00.655Z,-0.7
2023-02-26T04:22:00.537Z,-0.7
2023-02-26T04:23:00.512Z,-0.8
2023-02-26T04:24:00.534Z,-0.8
2023-02-26T04:25:00.613Z,-0.8
2023-02-26T04:26:00.535Z,-0.8
2023-02-26T04:27:00.504Z,-0.8
2023-02-26T04:28:00.564Z,-0.8
2023-02-26T04:29:00.538Z,-0.9
2023-02-26T04:30:00.544Z,-0.9
2023-02-26T04:31:00.663Z,-0.8
2023-02-26T04:32:00.679Z,-0.8
2023-02-26T04:33:00.706Z,-0.8
2023-02-26T04:34:00.543Z,-0.8
2023-02-26T04:35:00.504Z,-0.9
2023-02-26T04:36:00.820Z,-0.9
2023-02-26T04:37:00.604Z,-1.0
2023-02-26T04:38:00.536Z,-1.0
2023-02-26T04:39:00.509Z,-1.0
2023-02-26T04:40:00.577Z,-1.0
2023-02-26T04:41:00.567Z,-0.8
2023-02-26T04:42:00.541Z,-0.8
2023-02-26T04:43:00.533Z,-0.9
2023-02-26T04:44:00.512Z,-0.9
2023-02-26T04:45:00.855Z,-0.9
2023-02-26T04:46:00.548Z,-0.9
2023-02-26T04:47:00.501Z,-1.1
2023-02-26T04:48:00.568Z,-1.1
2023-02-26T04:49:00.531Z,-1.0
2023-02-26T04:50:00.564Z,-1.0
2023-02-26T04:51:00.532Z,-1.0
2023-02-26T04:52:00.599Z,-1.0
2023-02-26T04:53:00.525Z,-1.0
2023-02-26T04:54:00.528Z,-1.0
2023-02-26T04:55:00.599Z,-1.0
2023-02-26T04:56:00.513Z,-1.0
2023-02-26T04:57:00.548Z,-1.0
2023-02-26T04:58:00.581Z,-1.0
2023-02-26T04:59:00.505Z,-1.1
2023-02-26T05:00:00.641Z,-1.1
2023-02-26T05:01:00.522Z,-1.1
2023-02-26T05:02:00.623Z,-1.1
2023-02-26T05:03:00.531Z,-1.1
2023-02-26T05:04:00.533Z,-1.1
2023-02-26T05:05:00.828Z,-1.0
2023-02-26T05:06:00.537Z,-1.0
2023-02-26T05:07:00.541Z,-1.0
2023-02-26T05:08:01.033Z,-1.0
2023-02-26T05:09:00.550Z,-1.1
2023-02-26T05:10:00.588Z,-1.1
2023-02-26T05:11:00.549Z,-1.1
2023-02-26T05:12:00.603Z,-1.1
2023-02-26T05:13:00.565Z,-1.0
2023-02-26T05:14:00.518Z,-1.0
2023-02-26T05:15:00.560Z,-1.1
2023-02-26T05:16:00.727Z,-1.1
2023-02-26T05:17:00.532Z,-1.1
2023-02-26T05:18:00.538Z,-1.1
2023-02-26T05:19:00.523Z,-1.1
2023-02-26T05:20:00.537Z,-1.1
2023-02-26T05:21:00.587Z,-1.1
2023-02-26T05:22:00.520Z,-1.1
2023-02-26T05:23:00.731Z,-1.1
2023-02-26T05:24:00.534Z,-1.1
2023-02-26T05:25:00.540Z,-1.1
2023-02-26T05:26:00.650Z,-1.1
2023-02-26T05:27:00.544Z,-1.1
2023-02-26T05:28:00.616Z,-1.1
2023-02-26T05:29:00.653Z,-1.2
2023-02-26T05:30:00.545Z,-1.2
2023-02-26T05:31:00.615Z,-1.2
2023-02-26T05:32:01.115Z,-1.2
2023-02-26T05:33:00.521Z,-1.2
2023-02-26T05:34:00.514Z,-1.2
2023-02-26T05:35:00.628Z,-1.2
2023-02-26T05:36:00.530Z,-1.2
2023-02-26T05:37:00.556Z,-1.2
2023-02-26T05:38:00.537Z,-1.2
2023-02-26T05:39:00.609Z,-1.3
2023-02-26T05:40:00.560Z,-1.3
2023-02-26T05:41:00.576Z,-1.4
2023-02-26T05:42:00.530Z,-1.4
2023-02-26T05:43:00.564Z,-1.4
2023-02-26T05:44:00.540Z,-1.4
2023-02-26T05:45:00.546Z,-1.4
2023-02-26T05:46:00.764Z,-1.4
2023-02-26T05:47:01.338Z,-1.5
2023-02-26T05:48:00.654Z,-1.5
2023-02-26T05:49:00.545Z,-1.4
2023-02-26T05:50:00.665Z,-1.4
2023-02-26T05:51:00.580Z,-1.4
2023-02-26T05:52:00.617Z,-1.4
2023-02-26T05:53:00.541Z,-1.4
2023-02-26T05:54:00.566Z,-1.4
2023-02-26T05:55:00.546Z,-1.5
2023-02-26T05:56:00.595Z,-1.5
2023-02-26T05:57:00.828Z,-1.4
2023-02-26T05:58:00.517Z,-1.4
2023-02-26T05:59:00.698Z,-1.5
2023-02-26T06:00:00.726Z,-1.5
2023-02-26T06:01:00.522Z,-1.5
2023-02-26T06:02:00.604Z,-1.5
2023-02-26T06:03:00.746Z,-1.5
2023-02-26T06:04:00.543Z,-1.5
2023-02-26T06:05:00.575Z,-1.4
2023-02-26T06:06:00.567Z,-1.4
2023-02-26T06:07:00.749Z,-1.3
2023-02-26T06:08:00.871Z,-1.3
2023-02-26T06:09:00.583Z,-1.4
2023-02-26T06:10:00.542Z,-1.4
2023-02-26T06:11:00.563Z,-1.5
2023-02-26T06:12:00.530Z,-1.5
2023-02-26T06:13:00.529Z,-1.5
2023-02-26T06:14:00.580Z,-1.5
2023-02-26T06:15:00.547Z,-1.5
2023-02-26T06:16:00.765Z,-1.5
2023-02-26T06:17:01.368Z,-1.6
2023-02-26T06:18:00.541Z,-1.6
2023-02-26T06:19:01.083Z,-1.6
2023-02-26T06:20:00.570Z,-1.6
2023-02-26T06:21:00.733Z,-1.6
2023-02-26T06:22:00.609Z,-1.6
2023-02-26T06:23:00.550Z,-1.5
2023-02-26T06:24:00.536Z,-1.5
2023-02-26T06:25:00.657Z,-1.6
2023-02-26T06:26:00.560Z,-1.6
2023-02-26T06:27:00.588Z,-1.6
2023-02-26T06:28:00.557Z,-1.6
2023-02-26T06:29:00.566Z,-1.5
2023-02-26T06:30:00.559Z,-1.5
2023-02-26T06:31:00.877Z,-1.6
2023-02-26T06:32:00.667Z,-1.6
2023-02-26T06:33:00.678Z,-1.7
2023-02-26T06:34:00.588Z,-1.7
2023-02-26T06:35:00.552Z,-1.6
2023-02-26T06:36:00.558Z,-1.6
2023-02-26T06:37:00.546Z,-1.5
2023-02-26T06:38:00.736Z,-1.5
2023-02-26T06:39:00.528Z,-1.5
2023-02-26T06:40:00.636Z,-1.5
2023-02-26T06:41:00.575Z,-1.5
2023-02-26T06:42:00.596Z,-1.5
2023-02-26T06:43:00.530Z,-1.6
2023-02-26T06:44:00.542Z,-1.6
2023-02-26T06:45:00.783Z,-1.6
2023-02-26T06:46:00.733Z,-1.6
2023-02-26T06:47:00.789Z,-1.6
2023-02-26T06:48:00.642Z,-1.6
2023-02-26T06:49:00.557Z,-1.6
2023-02-26T06:50:00.542Z,-1.6
2023-02-26T06:51:00.602Z,-1.6
2023-02-26T06:52:00.691Z,-1.6
2023-02-26T06:53:00.568Z,-1.6
2023-02-26T06:54:00.604Z,-1.6
2023-02-26T06:55:00.777Z,-1.6
2023-02-26T06:56:00.569Z,-1.6
2023-02-26T06:57:00.539Z,-1.5
2023-02-26T06:58:00.568Z,-1.5
2023-02-26T06:59:00.715Z,-1.5
2023-02-26T07:00:00.753Z,-1.5
2023-02-26T07:01:01.947Z,-1.5
2023-02-26T07:02:00.636Z,-1.5
2023-02-26T07:03:00.561Z,-1.5
2023-02-26T07:04:00.605Z,-1.5
2023-02-26T07:05:00.546Z,-1.5
2023-02-26T07:06:18.741Z,-1.5
2023-02-26T07:07:00.603Z,-1.4
2023-02-26T07:08:00.542Z,-1.4
2023-02-26T07:09:00.660Z,-1.4
2023-02-26T07:10:00.588Z,-1.4
2023-02-26T07:11:00.631Z,-1.4
2023-02-26T07:12:00.570Z,-1.4
2023-02-26T07:13:00.849Z,-1.4
2023-02-26T07:14:00.536Z,-1.4
2023-02-26T07:15:00.652Z,-1.5
2023-02-26T07:16:00.562Z,-1.5
2023-02-26T07:17:01.161Z,-1.4
2023-02-26T07:18:00.617Z,-1.4
2023-02-26T07:19:00.553Z,-1.4
2023-02-26T07:20:00.565Z,-1.4
2023-02-26T07:21:00.653Z,-1.4
2023-02-26T07:22:00.760Z,-1.4
2023-02-26T07:23:00.676Z,-1.4
2023-02-26T07:24:00.538Z,-1.4
2023-02-26T07:25:00.565Z,-1.4
2023-02-26T07:26:00.607Z,-1.4
2023-02-26T07:27:00.535Z,-1.3
2023-02-26T07:28:00.571Z,-1.3
2023-02-26T07:29:00.539Z,-1.3
2023-02-26T07:30:00.960Z,-1.3
2023-02-26T07:31:00.689Z,-1.2
2023-02-26T07:32:00.799Z,-1.2
2023-02-26T07:33:00.558Z,-1.2
2023-02-26T07:34:00.536Z,-1.2
2023-02-26T07:35:00.587Z,-1.2
2023-02-26T07:36:00.816Z,-1.2
2023-02-26T07:37:00.587Z,-1.2
2023-02-26T07:38:00.950Z,-1.2
2023-02-26T07:39:00.557Z,-1.1
2023-02-26T07:40:00.560Z,-1.1
2023-02-26T07:41:00.556Z,-1.2
2023-02-26T07:42:00.554Z,-1.2
2023-02-26T07:43:00.523Z,-1.1
2023-02-26T07:44:00.583Z,-1.1
2023-02-26T07:45:00.653Z,-1.2
2023-02-26T07:46:00.560Z,-1.2
2023-02-26T07:47:00.685Z,-1.1
2023-02-26T07:48:00.685Z,-1.1
2023-02-26T07:49:00.876Z,-1.0
2023-02-26T07:50:00.549Z,-1.0
2023-02-26T07:51:00.551Z,-0.9
2023-02-26T07:52:00.695Z,-0.9
2023-02-26T07:53:00.581Z,-0.9
2023-02-26T07:54:00.522Z,-0.9
2023-02-26T07:55:00.577Z,-0.8
2023-02-26T07:56:00.554Z,-0.8
2023-02-26T07:57:00.681Z,-0.8
2023-02-26T07:58:00.531Z,-0.8
2023-02-26T07:59:00.551Z,-0.8
2023-02-26T08:00:00.713Z,-0.8
2023-02-26T08:01:00.613Z,-0.8
2023-02-26T08:02:00.672Z,-0.8
2023-02-26T08:03:00.631Z,-0.7
2023-02-26T08:04:00.902Z,-0.7
2023-02-26T08:05:00.580Z,-0.7
2023-02-26T08:06:00.574Z,-0.7
2023-02-26T08:07:00.653Z,-0.6
2023-02-26T08:08:00.734Z,-0.6
2023-02-26T08:09:01.077Z,-0.6
2023-02-26T08:10:00.543Z,-0.6
2023-02-26T08:11:00.891Z,-0.5
2023-02-26T08:12:00.565Z,-0.5
2023-02-26T08:13:00.653Z,-0.5
2023-02-26T08:14:00.560Z,-0.5
2023-02-26T08:15:00.543Z,-0.4
2023-02-26T08:16:00.579Z,-0.4
2023-02-26T08:17:00.528Z,-0.4
2023-02-26T08:18:00.529Z,-0.4
2023-02-26T08:19:00.560Z,-0.4
2023-02-26T08:20:00.532Z,-0.4
2023-02-26T08:21:00.562Z,-0.3
2023-02-26T08:22:00.520Z,-0.3
2023-02-26T08:23:00.731Z,-0.3
2023-02-26T08:24:00.554Z,-0.3
2023-02-26T08:25:00.521Z,-0.1
2023-02-26T08:26:01.174Z,-0.1
2023-02-26T08:27:00.539Z,-0.1
2023-02-26T08:28:00.526Z,-0.1
2023-02-26T08:29:00.547Z,-0.1
2023-02-26T08:30:00.666Z,-0.1
2023-02-26T08:31:00.696Z,-0.1
2023-02-26T08:32:00.693Z,-0.1
2023-02-26T08:33:00.590Z,-0.1
2023-02-26T08:34:00.781Z,-0.1
2023-02-26T08:35:00.587Z,-0.1
2023-02-26T08:36:00.534Z,-0.1
2023-02-26T08:37:00.583Z,0.1
2023-02-26T08:38:00.540Z,0.1
2023-02-26T08:39:00.625Z,0.2
2023-02-26T08:40:00.532Z,0.2
2023-02-26T08:41:00.553Z,0.1
2023-02-26T08:42:00.529Z,0.1
2023-02-26T08:43:00.546Z,0.2
2023-02-26T08:44:01.063Z,0.2
2023-02-26T08:45:00.727Z,0.2
2023-02-26T08:46:00.582Z,0.2
2023-02-26T08:47:00.630Z,0.4
2023-02-26T08:48:00.527Z,0.4
2023-02-26T08:49:00.679Z,0.3
2023-02-26T08:50:00.525Z,0.3
2023-02-26T08:51:00.561Z,0.4
2023-02-26T08:52:00.527Z,0.4
2023-02-26T08:53:00.561Z,0.5
2023-02-26T08:54:00.534Z,0.5
2023-02-26T08:55:00.526Z,0.6
2023-02-26T08:56:00.543Z,0.6
2023-02-26T08:57:00.535Z,0.8
2023-02-26T08:58:00.535Z,0.8
2023-02-26T09:01:00.567Z,1.1
2023-02-26T09:02:00.640Z,1.1
2023-02-26T09:03:00.781Z,1.2
2023-02-26T09:04:00.665Z,1.2
2023-02-26T09:05:00.531Z,1.5
2023-02-26T09:06:00.564Z,1.5
2023-02-26T09:07:00.539Z,1.3
2023-02-26T09:08:00.776Z,1.3
2023-02-26T09:09:00.530Z,1.4
2023-02-26T09:10:00.573Z,1.4
2023-02-26T09:11:01.121Z,1.5
2023-02-26T09:12:00.591Z,1.5
2023-02-26T09:13:00.560Z,1.3
2023-02-26T09:14:00.530Z,1.3
2023-02-26T09:15:00.519Z,1.4
2023-02-26T09:16:00.620Z,1.4
2023-02-26T09:17:00.545Z,1.7
2023-02-26T09:18:00.516Z,1.7
2023-02-26T09:19:00.580Z,1.9
2023-02-26T09:20:00.983Z,1.9
2023-02-26T09:21:00.555Z,1.9
2023-02-26T09:22:00.522Z,1.9
2023-02-26T09:23:00.516Z,2.0
2023-02-26T09:24:00.688Z,2.0
2023-02-26T09:25:00.755Z,1.8
2023-02-26T09:26:00.549Z,1.8
2023-02-26T09:27:00.537Z,1.6
2023-02-26T09:28:00.647Z,1.6
2023-02-26T09:29:00.573Z,1.7
2023-02-26T09:30:00.900Z,1.7
2023-02-26T09:31:00.601Z,1.9
2023-02-26T09:32:00.697Z,1.9
2023-02-26T09:33:00.573Z,2.0
2023-02-26T09:34:00.517Z,2.0
2023-02-26T09:35:00.540Z,2.0
2023-02-26T09:36:00.587Z,2.0
2023-02-26T09:37:01.565Z,2.1
2023-02-26T09:38:00.556Z,2.1
2023-02-26T09:39:00.531Z,2.0
2023-02-26T09:40:00.570Z,2.0
2023-02-26T09:41:10.452Z,2.1
2023-02-26T09:42:07.892Z,2.1
2023-02-26T09:43:06.982Z,2.0
2023-02-26T09:44:08.408Z,2.0
2023-02-26T09:45:01.715Z,1.9
2023-02-26T09:46:03.956Z,1.9
2023-02-26T09:47:05.423Z,2.0
2023-02-26T09:48:03.187Z,2.0
2023-02-26T09:49:06.248Z,2.0
2023-02-26T09:50:03.513Z,2.0
2023-02-26T09:51:00.552Z,1.9
2023-02-26T09:52:03.525Z,1.9
2023-02-26T09:53:01.541Z,2.0
2023-02-26T09:54:10.483Z,2.0
2023-02-26T09:55:04.611Z,1.8
2023-02-26T09:56:03.972Z,1.8
2023-02-26T09:57:01.538Z,2.0
2023-02-26T09:58:02.768Z,2.0
2023-02-26T09:59:00.530Z,2.1
2023-02-26T10:00:01.918Z,2.1
2023-02-26T10:01:10.458Z,2.0
2023-02-26T10:02:06.660Z,2.0
2023-02-26T10:03:08.534Z,2.0
2023-02-26T10:04:09.438Z,2.0
2023-02-26T10:05:08.088Z,2.2
2023-02-26T10:06:10.498Z,2.2
2023-02-26T10:07:10.483Z,2.4
2023-02-26T10:08:04.787Z,2.4
2023-02-26T10:09:10.460Z,2.6
2023-02-26T10:10:04.389Z,2.6
2023-02-26T10:11:01.561Z,2.6
2023-02-26T10:12:04.608Z,2.6
2023-02-26T10:13:01.007Z,2.3
2023-02-26T10:14:03.661Z,2.3
2023-02-26T10:15:00.510Z,2.2
2023-02-26T10:16:04.501Z,2.2
2023-02-26T10:17:04.754Z,2.4
2023-02-26T10:21:06.172Z,2.6
2023-02-26T10:24:04.118Z,2.7
2023-02-26T10:29:09.558Z,2.8
2023-02-26T10:30:04.247Z,2.7
2023-02-26T10:31:10.544Z,2.7
2023-02-26T10:32:00.633Z,2.7
2023-02-26T10:33:05.758Z,2.7
2023-02-26T10:34:10.490Z,2.6
2023-02-26T10:35:00.511Z,2.6
2023-02-26T10:36:09.467Z,2.5
2023-02-26T10:37:03.517Z,2.5
2023-02-26T10:38:07.650Z,2.5
2023-02-26T10:39:10.482Z,2.5
2023-02-26T10:40:08.074Z,2.4
2023-02-26T10:41:04.299Z,2.4
2023-02-26T10:42:04.876Z,2.2
2023-02-26T10:43:10.455Z,2.2
2023-02-26T10:44:05.894Z,2.2
2023-02-26T10:45:10.065Z,2.2
2023-02-26T10:46:08.569Z,2.4
2023-02-26T10:47:10.453Z,2.4
2023-02-26T10:48:07.264Z,2.5
2023-02-26T10:49:10.500Z,2.5
2023-02-26T10:50:03.416Z,2.6
2023-02-26T10:51:04.339Z,2.6
2023-02-26T10:52:09.456Z,2.5
2023-02-26T10:53:01.410Z,2.5
2023-02-26T10:54:05.253Z,2.4
2023-02-26T10:55:10.466Z,2.4
2023-02-26T10:56:10.395Z,2.5
2023-02-26T10:57:00.722Z,2.5
2023-02-26T10:58:05.234Z,2.4
2023-02-26T10:59:00.530Z,2.4
2023-02-26T11:00:01.315Z,2.6
2023-02-26T11:01:01.105Z,2.6
2023-02-26T11:02:00.773Z,2.8
2023-02-26T11:03:01.606Z,2.8
2023-02-26T11:04:02.854Z,2.8
2023-02-26T11:05:07.670Z,2.8
2023-02-26T11:06:01.385Z,2.9
2023-02-26T11:07:01.562Z,2.9
2023-02-26T11:08:03.277Z,2.9
2023-02-26T11:09:01.344Z,2.9
2023-02-26T11:10:01.487Z,2.9
2023-02-26T11:11:01.974Z,2.9
2023-02-26T11:12:03.748Z,2.8
2023-02-26T11:13:00.563Z,2.8
2023-02-26T11:14:00.794Z,2.9
2023-02-26T11:15:00.880Z,2.9
2023-02-26T11:16:02.789Z,3.0
2023-02-26T11:17:02.724Z,3.0
2023-02-26T11:18:01.027Z,3.0
2023-02-26T11:19:00.819Z,3.0
2023-02-26T11:20:03.271Z,3.0
2023-02-26T11:21:03.591Z,3.0
2023-02-26T11:22:01.264Z,3.0
2023-02-26T11:23:02.278Z,3.0
2023-02-26T11:24:04.063Z,2.9
2023-02-26T11:25:01.686Z,2.9
2023-02-26T11:26:10.462Z,2.9
2023-02-26T11:27:02.175Z,2.9
2023-02-26T11:28:02.293Z,3.1
2023-02-26T11:29:00.944Z,3.1
2023-02-26T11:30:05.935Z,3.0
2023-02-26T11:31:04.092Z,3.0
2023-02-26T11:32:00.629Z,2.9
2023-02-26T11:33:05.481Z,2.9
2023-02-26T11:34:02.325Z,3.0
2023-02-26T11:35:00.570Z,3.0
2023-02-26T11:36:01.921Z,2.9
2023-02-26T11:37:00.966Z,2.9
2023-02-26T11:38:01.584Z,2.8
2023-02-26T11:39:03.870Z,2.8
2023-02-26T11:40:05.628Z,2.8
2023-02-26T11:41:01.015Z,2.8
2023-02-26T11:42:01.267Z,2.8
2023-02-26T11:43:03.956Z,2.8
2023-02-26T11:44:03.804Z,3.0
2023-02-26T11:45:00.597Z,3.0
2023-02-26T11:46:01.603Z,3.0
2023-02-26T11:47:01.959Z,3.0
2023-02-26T11:48:05.372Z,2.9
2023-02-26T11:49:00.806Z,2.9
2023-02-26T11:50:02.696Z,3.0
2023-02-26T11:51:02.865Z,3.0
2023-02-26T11:52:07.963Z,3.0
2023-02-26T11:53:04.591Z,3.0
2023-02-26T11:54:00.533Z,3.2
2023-02-26T11:55:02.291Z,3.2
2023-02-26T11:56:02.324Z,3.3
2023-02-26T11:57:01.986Z,3.3
2023-02-26T11:58:00.553Z,3.5
2023-02-26T11:59:05.639Z,3.5
2023-02-26T12:00:00.630Z,3.6
2023-02-26T12:01:01.108Z,3.6
2023-02-26T12:02:02.038Z,3.4
2023-02-26T12:03:02.537Z,3.4
2023-02-26T12:04:01.520Z,3.6
2023-02-26T12:05:02.375Z,3.6
2023-02-26T12:06:00.892Z,3.5
2023-02-26T12:07:00.594Z,3.5
2023-02-26T12:08:02.413Z,3.7
2023-02-26T12:09:00.711Z,3.7
2023-02-26T12:10:00.625Z,3.9
2023-02-26T12:11:13.181Z,3.9
2023-02-26T12:12:03.752Z,3.6
2023-02-26T12:13:01.552Z,3.6
2023-02-26T12:14:10.481Z,3.6
2023-02-26T12:15:06.643Z,3.6
2023-02-26T12:16:10.543Z,3.8
2023-02-26T12:17:00.504Z,3.8
2023-02-26T12:18:10.480Z,4.0
2023-02-26T12:19:05.028Z,4.0
2023-02-26T12:20:10.482Z,4.1
2023-02-26T12:21:00.542Z,4.1
2023-02-26T12:22:01.507Z,4.5
2023-02-26T12:23:00.535Z,4.5
2023-02-26T12:24:10.482Z,4.5
2023-02-26T12:25:00.512Z,4.5
2023-02-26T12:26:03.754Z,4.2
2023-02-26T12:27:00.532Z,4.2
2023-02-26T12:28:10.456Z,4.4
2023-02-26T12:29:10.481Z,4.4
2023-02-26T12:30:10.484Z,4.5
2023-02-26T12:31:01.638Z,4.5
2023-02-26T12:32:00.650Z,4.4
2023-02-26T12:33:10.492Z,4.4
2023-02-26T12:34:10.485Z,4.6
2023-02-26T12:35:09.501Z,4.6
2023-02-26T12:36:10.465Z,4.5
2023-02-26T12:37:10.463Z,4.5
2023-02-26T12:38:07.135Z,4.3
2023-02-26T12:39:03.756Z,4.3
2023-02-26T12:40:10.597Z,4.3
2023-02-26T12:41:01.553Z,4.3
2023-02-26T12:42:01.515Z,4.4
2023-02-26T12:43:07.358Z,4.4
2023-02-26T12:44:06.103Z,4.3
2023-02-26T12:45:10.458Z,4.3
2023-02-26T12:46:10.463Z,4.4
2023-02-26T12:47:10.491Z,4.4
2023-02-26T12:48:00.514Z,4.5
2023-02-26T12:49:10.496Z,4.5
2023-02-26T12:50:10.562Z,4.4
2023-02-26T12:51:10.488Z,4.4
2023-02-26T12:52:01.525Z,4.5
2023-02-26T12:53:10.465Z,4.5
2023-02-26T12:54:00.548Z,4.6
2023-02-26T12:55:10.488Z,4.6
2023-02-26T12:56:10.461Z,4.7
2023-02-26T12:57:10.463Z,4.7
2023-02-26T12:58:10.465Z,4.7
2023-02-26T12:59:10.462Z,4.7
2023-02-26T13:00:10.493Z,4.6
2023-02-26T13:01:10.567Z,4.6
2023-02-26T13:02:01.779Z,4.7
2023-02-26T13:03:10.464Z,4.7
2023-02-26T13:04:10.614Z,4.7
2023-02-26T13:05:09.837Z,4.7
2023-02-26T13:06:03.793Z,4.8
2023-02-26T13:07:08.051Z,4.8
2023-02-26T13:08:08.079Z,4.8
2023-02-26T13:09:10.501Z,4.8
2023-02-26T13:10:04.262Z,4.5
2023-02-26T13:11:00.566Z,4.5
2023-02-26T13:12:10.490Z,4.4
2023-02-26T13:13:00.522Z,4.4
2023-02-26T13:14:10.465Z,4.5
2023-02-26T13:15:06.631Z,4.5
2023-02-26T13:16:10.524Z,4.5
2023-02-26T13:17:00.530Z,4.5
2023-02-26T13:18:07.863Z,4.6
2023-02-26T13:19:05.934Z,4.6
2023-02-26T13:20:03.209Z,4.5
2023-02-26T13:21:10.491Z,4.5
2023-02-26T13:22:04.066Z,4.5
2023-02-26T13:23:02.549Z,4.5
2023-02-26T13:24:05.269Z,4.3
2023-02-26T13:25:03.192Z,4.3
2023-02-26T13:26:02.905Z,4.4
2023-02-26T13:27:01.098Z,4.4
2023-02-26T13:28:02.565Z,4.5
2023-02-26T13:29:03.945Z,4.5
2023-02-26T13:30:03.764Z,4.5
2023-02-26T13:31:02.775Z,4.5
2023-02-26T13:32:04.354Z,4.6
2023-02-26T13:33:00.856Z,4.6
2023-02-26T13:34:03.863Z,4.8
2023-02-26T13:35:03.566Z,4.8
2023-02-26T13:36:01.330Z,4.8
2023-02-26T13:37:01.930Z,4.8
2023-02-26T13:38:01.817Z,4.7
2023-02-26T13:39:10.489Z,4.7
2023-02-26T13:40:10.496Z,4.6
2023-02-26T13:41:10.498Z,4.6
2023-02-26T13:42:00.514Z,4.7
2023-02-26T13:43:09.811Z,4.7
2023-02-26T13:44:06.985Z,4.8
2023-02-26T13:45:10.491Z,4.8